Time;durP1;ratioP1;P1;durP2;ratioP2;P2;SDS_P1;SDS_P2;PMS_P1;PMS_P2;Temp;Humidity;BMP_temperature;BMP_pressure;BME280_temperature;BME280_humidity;BME280_pressure;Samples;Min_cycle;Max_cycle;Signal;HPM_P1;HPM_P2
2022/09/22 00:02:02;;;;;;;2.05;1.80;;;11.20;68.90;;;;;;5095690;28;20123;-16
2022/09/22 00:04:28;;;;;;;2.05;1.65;;;11.10;69.70;;;;;;5095568;28;20538;-15
2022/09/22 00:06:56;;;;;;;2.17;1.70;;;11.10;69.00;;;;;;5094936;28;20356;-16
2022/09/22 00:09:22;;;;;;;1.95;1.65;;;11.00;68.90;;;;;;5095556;28;20107;-16
2022/09/22 00:11:50;;;;;;;3.20;2.10;;;10.90;69.20;;;;;;5095188;28;20562;-15
2022/09/22 00:14:26;;;;;;;2.00;1.73;;;10.90;69.80;;;;;;5095476;28;20028;-16
2022/09/22 00:17:01;;;;;;;4.60;2.50;;;10.90;69.20;;;;;;5094998;28;20071;-14
2022/09/22 00:19:30;;;;;;;3.75;2.15;;;10.90;70.10;;;;;;5095221;28;20052;-15
2022/09/22 00:21:57;;;;;;;2.80;1.80;;;10.80;70.40;;;;;;5094998;28;20032;-16
2022/09/22 00:24:25;;;;;;;2.50;2.17;;;10.80;70.00;;;;;;5095032;28;20016;-15
2022/09/22 00:26:55;;;;;;;4.40;2.75;;;10.70;71.10;;;;;;5094859;28;20032;-14
2022/09/22 00:29:22;;;;;;;3.50;2.40;;;10.60;70.70;;;;;;5095153;28;20108;-15
2022/09/22 00:31:49;;;;;;;4.18;2.58;;;10.60;70.50;;;;;;5076945;28;20059;-15
2022/09/22 00:34:17;;;;;;;3.95;2.28;;;10.50;71.00;;;;;;5094992;28;20024;-15
2022/09/22 00:36:43;;;;;;;2.25;1.75;;;10.50;71.40;;;;;;5094682;28;20379;-15
2022/09/22 00:39:09;;;;;;;3.85;2.15;;;10.40;71.20;;;;;;5094532;28;20498;-15
2022/09/22 00:41:39;;;;;;;4.53;2.80;;;10.40;71.60;;;;;;5095432;28;20107;-17
2022/09/22 00:44:20;;;;;;;4.18;2.40;;;10.40;71.70;;;;;;5094676;28;20031;-17
2022/09/22 00:47:16;;;;;;;2.63;2.10;;;10.40;71.60;;;;;;5094479;28;20036;-15
2022/09/22 00:50:03;;;;;;;2.63;2.30;;;10.40;71.70;;;;;;5094834;28;20023;-17
2022/09/22 00:52:34;;;;;;;3.17;2.22;;;10.30;71.80;;;;;;5075411;28;20062;-16
2022/09/22 00:55:05;;;;;;;3.65;2.60;;;10.30;73.00;;;;;;5094218;28;20447;-14
2022/09/22 00:57:34;;;;;;;4.20;2.50;;;10.20;72.90;;;;;;5094673;28;20028;-14
2022/09/22 01:00:03;;;;;;;4.03;2.72;;;10.20;72.70;;;;;;5094564;28;20020;-13
2022/09/22 01:02:30;;;;;;;5.45;2.85;;;10.20;73.20;;;;;;5094440;28;20028;-17
2022/09/22 01:04:56;;;;;;;2.80;2.38;;;10.10;73.20;;;;;;5093885;28;20095;-17
2022/09/22 01:07:27;;;;;;;3.88;2.30;;;10.10;73.30;;;;;;5094407;28;20056;-17
2022/09/22 01:09:54;;;;;;;2.78;2.00;;;10.00;73.20;;;;;;5094316;28;20434;-17
2022/09/22 01:12:22;;;;;;;3.25;2.05;;;10.00;73.10;;;;;;5094032;28;20487;-17
2022/09/22 01:15:19;;;;;;;4.55;3.15;;;10.00;72.20;;;;;;5094049;28;20064;-15
2022/09/22 01:18:02;;;;;;;4.55;2.88;;;10.00;72.90;;;;;;5088083;28;20518;-14
2022/09/22 01:20:46;;;;;;;4.35;2.60;;;9.90;73.40;;;;;;5094156;28;20389;-15
2022/09/22 01:23:27;;;;;;;3.72;2.38;;;9.90;74.00;;;;;;5093862;28;20027;-17
2022/09/22 01:26:09;;;;;;;4.53;2.30;;;9.90;73.90;;;;;;5094184;28;20040;-16
2022/09/22 01:29:00;;;;;;;5.00;2.72;;;9.90;73.90;;;;;;5093739;28;20032;-15
2022/09/22 01:31:51;;;;;;;3.03;2.30;;;9.90;73.50;;;;;;5094701;28;20060;-15
2022/09/22 01:34:33;;;;;;;4.18;2.90;;;9.90;73.60;;;;;;5094012;28;20028;-16
2022/09/22 01:37:30;;;;;;;3.63;2.60;;;9.90;73.10;;;;;;5093499;28;20106;-15
2022/09/22 01:40:03;;;;;;;4.22;2.92;;;9.90;73.20;;;;;;5093637;28;20065;-17
2022/09/22 01:42:37;;;;;;;4.77;3.27;;;9.90;73.40;;;;;;5075505;28;20032;-15
2022/09/22 01:45:25;;;;;;;4.05;2.90;;;10.00;74.10;;;;;;5093565;28;20028;-16
2022/09/22 01:48:22;;;;;;;7.60;3.80;;;10.00;73.60;;;;;;5093355;28;20052;-15
2022/09/22 01:50:58;;;;;;;5.20;3.28;;;10.00;74.00;;;;;;5093383;28;20493;-16
2022/09/22 01:53:32;;;;;;;5.22;3.20;;;10.00;73.80;;;;;;5093447;28;20158;-16
2022/09/22 01:56:03;;;;;;;3.33;3.00;;;10.00;73.60;;;;;;5093445;28;20118;-17
2022/09/22 01:58:33;;;;;;;5.70;3.55;;;10.00;73.90;;;;;;5093641;28;20108;-15
2022/09/22 02:01:08;;;;;;;6.47;3.40;;;10.10;73.40;;;;;;5093638;28;20020;-15
2022/09/22 02:03:47;;;;;;;7.00;3.83;;;10.10;73.20;;;;;;5092907;28;20500;-15
2022/09/22 02:06:34;;;;;;;4.38;3.10;;;10.10;73.20;;;;;;5093189;28;20040;-13
2022/09/22 02:09:06;;;;;;;4.95;3.33;;;10.00;73.10;;;;;;5093086;28;20032;-16
2022/09/22 02:11:33;;;;;;;4.32;3.00;;;10.00;73.30;;;;;;5093602;28;20118;-15
2022/09/22 02:14:00;;;;;;;4.18;2.92;;;10.00;73.40;;;;;;5093223;28;20132;-17
2022/09/22 02:16:26;;;;;;;4.57;3.15;;;10.10;73.30;;;;;;5093398;28;20012;-15
2022/09/22 02:19:15;;;;;;;4.57;3.40;;;10.10;73.40;;;;;;5093118;28;20028;-14
2022/09/22 02:21:45;;;;;;;5.38;3.15;;;10.10;73.50;;;;;;5093396;28;20020;-15
2022/09/22 02:24:32;;;;;;;5.63;3.30;;;10.10;73.90;;;;;;5093089;28;20084;-16
2022/09/22 02:27:06;;;;;;;4.18;3.20;;;10.10;73.60;;;;;;5093042;28;20036;-15
2022/09/22 02:29:36;;;;;;;7.28;3.40;;;10.10;73.50;;;;;;5093540;28;20024;-16
2022/09/22 02:32:08;;;;;;;7.30;3.35;;;10.20;73.40;;;;;;5092958;28;20031;-15
2022/09/22 02:34:35;;;;;;;5.43;3.70;;;10.20;73.50;;;;;;5093210;28;20047;-14
2022/09/22 02:37:19;;;;;;;5.78;3.58;;;10.30;73.60;;;;;;5092805;28;20023;-14
2022/09/22 02:40:09;;;;;;;4.65;3.17;;;10.20;73.60;;;;;;5092964;28;20028;-15
2022/09/22 02:42:50;;;;;;;6.07;3.72;;;10.30;73.50;;;;;;5092880;28;20031;-15
2022/09/22 02:45:22;;;;;;;5.82;3.83;;;10.30;73.90;;;;;;5092802;28;20036;-15
2022/09/22 02:47:56;;;;;;;3.83;2.97;;;10.30;73.60;;;;;;5092618;28;20044;-15
2022/09/22 02:50:24;;;;;;;4.75;3.58;;;10.40;73.30;;;;;;5093175;28;20051;-14
2022/09/22 02:52:55;;;;;;;3.95;2.85;;;10.30;73.60;;;;;;5092574;28;20032;-15
2022/09/22 02:55:21;;;;;;;4.85;2.92;;;10.40;73.30;;;;;;5093505;28;20031;-17
2022/09/22 02:57:47;;;;;;;3.05;2.70;;;10.40;74.10;;;;;;5092711;28;20028;-16
2022/09/22 03:00:14;;;;;;;5.60;3.65;;;10.40;73.40;;;;;;5093260;28;20034;-15
2022/09/22 03:02:39;;;;;;;4.38;3.20;;;10.40;73.30;;;;;;5093014;28;20111;-16
2022/09/22 03:05:06;;;;;;;4.53;3.20;;;10.50;73.40;;;;;;5092760;28;20589;-17
2022/09/22 03:07:32;;;;;;;3.30;2.70;;;10.50;74.40;;;;;;5093087;28;20028;-15
2022/09/22 03:09:57;;;;;;;2.60;2.40;;;10.60;73.20;;;;;;5092932;28;20034;-17
2022/09/22 03:12:23;;;;;;;4.43;2.70;;;10.60;73.10;;;;;;5074503;28;20392;-18
2022/09/22 03:14:50;;;;;;;3.70;2.67;;;10.70;73.50;;;;;;5092929;28;20073;-17
2022/09/22 03:17:16;;;;;;;4.70;2.75;;;10.70;73.20;;;;;;5096364;28;20491;-17
2022/09/22 03:19:41;;;;;;;5.57;3.28;;;10.80;73.50;;;;;;5096224;28;20421;-15
2022/09/22 03:22:07;;;;;;;4.45;2.80;;;10.80;73.60;;;;;;5096445;28;20024;-16
2022/09/22 03:24:33;;;;;;;3.90;2.53;;;10.80;73.20;;;;;;5096076;28;20032;-16
2022/09/22 03:27:00;;;;;;;2.35;2.15;;;10.90;73.40;;;;;;5095884;28;20020;-15
2022/09/22 03:29:25;;;;;;;4.25;2.28;;;10.90;72.40;;;;;;5096069;28;20032;-17
2022/09/22 03:31:51;;;;;;;3.65;2.40;;;10.90;72.90;;;;;;5096228;28;20103;-16
2022/09/22 03:34:17;;;;;;;3.40;2.70;;;10.90;72.80;;;;;;5095851;28;20103;-15
2022/09/22 03:36:43;;;;;;;5.07;2.80;;;11.00;73.70;;;;;;5095898;28;20463;-15
2022/09/22 03:39:09;;;;;;;4.63;2.95;;;11.00;76.20;;;;;;5096051;28;20148;-17
2022/09/22 03:41:36;;;;;;;3.40;2.83;;;11.00;75.20;;;;;;5095813;28;20467;-16
2022/09/22 03:44:03;;;;;;;4.28;3.22;;;11.00;74.40;;;;;;5096041;28;20028;-16
2022/09/22 03:46:29;;;;;;;5.03;3.58;;;11.00;76.00;;;;;;5095588;28;20036;-15
2022/09/22 03:48:55;;;;;;;4.32;3.28;;;11.10;76.80;;;;;;5095264;28;20044;-17
2022/09/22 03:51:21;;;;;;;4.03;3.10;;;11.10;76.60;;;;;;5095931;28;20034;-16
2022/09/22 03:53:48;;;;;;;3.65;2.90;;;11.10;75.70;;;;;;5095619;28;20414;-17
2022/09/22 03:56:15;;;;;;;4.05;2.60;;;11.10;75.40;;;;;;5095707;28;20099;-17
2022/09/22 03:58:41;;;;;;;4.20;3.05;;;11.20;74.40;;;;;;5095574;28;20020;-16
2022/09/22 04:01:10;;;;;;;6.00;2.97;;;11.20;73.00;;;;;;5095304;28;20020;-15
2022/09/22 04:03:37;;;;;;;3.17;2.17;;;11.40;72.40;;;;;;5095674;28;20039;-15
2022/09/22 04:06:03;;;;;;;2.45;2.00;;;11.40;72.20;;;;;;5095475;28;20399;-16
2022/09/22 04:08:29;;;;;;;2.00;1.80;;;11.60;71.60;;;;;;5095408;28;20066;-15
2022/09/22 04:10:56;;;;;;;5.35;2.35;;;11.70;71.10;;;;;;5095369;28;20048;-15
2022/09/22 04:13:22;;;;;;;4.10;2.80;;;11.70;70.70;;;;;;5095864;28;20036;-16
2022/09/22 04:15:49;;;;;;;2.35;2.00;;;11.80;70.60;;;;;;5095375;28;20020;-15
2022/09/22 04:18:15;;;;;;;4.95;2.17;;;11.90;70.20;;;;;;5095295;28;20024;-16
2022/09/22 04:20:43;;;;;;;2.08;1.88;;;11.90;70.10;;;;;;5095216;28;20126;-17
2022/09/22 04:23:10;;;;;;;2.50;1.85;;;11.90;69.60;;;;;;5094789;28;20479;-16
2022/09/22 04:25:36;;;;;;;3.00;2.03;;;12.00;69.50;;;;;;5094655;28;20029;-15
2022/09/22 04:28:03;;;;;;;2.80;1.85;;;12.10;69.20;;;;;;5095223;28;20026;-15
2022/09/22 04:30:29;;;;;;;4.18;2.88;;;12.10;69.00;;;;;;5095157;28;20036;-14
2022/09/22 04:32:55;;;;;;;2.20;2.00;;;12.10;69.10;;;;;;5094485;28;20517;-15
2022/09/22 04:35:21;;;;;;;4.13;2.20;;;12.10;68.80;;;;;;5095010;28;20024;-16
2022/09/22 04:37:47;;;;;;;3.05;2.22;;;12.10;68.80;;;;;;5094944;28;20491;-17
2022/09/22 04:40:13;;;;;;;2.00;1.80;;;12.20;69.00;;;;;;5094691;28;20028;-17
2022/09/22 04:42:39;;;;;;;2.15;1.92;;;12.20;68.90;;;;;;5094883;28;20020;-15
2022/09/22 04:45:06;;;;;;;2.53;2.10;;;12.20;68.80;;;;;;5094347;28;20028;-17
2022/09/22 04:47:32;;;;;;;2.97;1.95;;;12.20;68.60;;;;;;5094525;28;20047;-15
2022/09/22 04:49:58;;;;;;;3.03;1.85;;;12.20;68.80;;;;;;5094705;28;20054;-17
2022/09/22 04:52:25;;;;;;;2.92;2.10;;;12.20;68.90;;;;;;5094681;28;20020;-16
2022/09/22 04:54:51;;;;;;;3.53;2.30;;;12.20;69.90;;;;;;5094277;28;20032;-17
2022/09/22 04:57:17;;;;;;;3.03;2.13;;;12.20;70.20;;;;;;5094423;28;20056;-17
2022/09/22 04:59:43;;;;;;;2.50;2.30;;;12.20;71.70;;;;;;5094587;28;20024;-17
2022/09/22 05:02:09;;;;;;;5.07;4.00;;;12.20;71.50;;;;;;5094535;28;20088;-15
2022/09/22 05:04:35;;;;;;;5.28;3.67;;;12.10;71.00;;;;;;5094045;28;20081;-16
2022/09/22 05:07:00;;;;;;;4.63;3.03;;;12.10;71.40;;;;;;5093888;28;20110;-16
2022/09/22 05:09:27;;;;;;;4.30;2.92;;;12.10;70.90;;;;;;5094841;28;20099;-16
2022/09/22 05:12:00;;;;;;;5.00;3.20;;;12.10;70.30;;;;;;5094384;28;20032;-16
2022/09/22 05:14:27;;;;;;;4.22;2.90;;;12.20;70.40;;;;;;5094109;28;20365;-17
2022/09/22 05:16:53;;;;;;;4.05;2.63;;;12.20;69.90;;;;;;5094002;28;20032;-15
2022/09/22 05:19:19;;;;;;;3.80;2.60;;;12.30;70.00;;;;;;5093867;28;20065;-16
2022/09/22 05:21:45;;;;;;;4.47;2.72;;;12.30;69.60;;;;;;5093925;28;20032;-15
2022/09/22 05:24:11;;;;;;;4.57;3.00;;;12.40;69.10;;;;;;5094136;28;20028;-16
2022/09/22 05:26:37;;;;;;;3.90;2.58;;;12.40;68.70;;;;;;5094057;28;20364;-14
2022/09/22 05:29:05;;;;;;;2.90;2.40;;;12.50;68.60;;;;;;5093863;28;20031;-15
2022/09/22 05:31:31;;;;;;;2.92;2.30;;;12.50;68.70;;;;;;5094001;28;20027;-17
2022/09/22 05:33:57;;;;;;;3.70;2.33;;;12.50;68.30;;;;;;5093551;28;20529;-17
2022/09/22 05:36:23;;;;;;;3.35;2.00;;;12.70;68.00;;;;;;5093628;28;20024;-17
2022/09/22 05:38:50;;;;;;;5.90;3.00;;;12.70;67.80;;;;;;5093016;28;20089;-15
2022/09/22 05:41:16;;;;;;;5.47;2.72;;;12.70;67.80;;;;;;5093563;28;20024;-15
2022/09/22 05:43:42;;;;;;;4.65;2.78;;;12.80;67.60;;;;;;5093857;28;20103;-15
2022/09/22 05:46:08;;;;;;;5.15;2.50;;;12.80;67.40;;;;;;5093744;28;20387;-17
2022/09/22 05:48:34;;;;;;;3.30;2.20;;;12.90;67.60;;;;;;5093501;28;20115;-17
2022/09/22 05:51:00;;;;;;;6.78;2.50;;;12.90;67.30;;;;;;5093512;28;20032;-18
2022/09/22 05:53:27;;;;;;;3.65;2.70;;;13.00;68.40;;;;;;5093384;28;20394;-16
2022/09/22 05:55:55;;;;;;;5.00;2.97;;;13.00;67.80;;;;;;5093692;28;20055;-15
2022/09/22 05:58:22;;;;;;;4.22;2.83;;;13.10;67.60;;;;;;5093328;28;20034;-16
2022/09/22 06:00:48;;;;;;;2.63;2.35;;;13.10;68.30;;;;;;5093082;28;20533;-17
2022/09/22 06:03:14;;;;;;;4.43;2.47;;;13.10;67.40;;;;;;5075102;28;20032;-15
2022/09/22 06:05:40;;;;;;;6.85;2.65;;;13.20;67.20;;;;;;5093572;28;20078;-17
2022/09/22 06:08:06;;;;;;;4.63;3.00;;;13.30;66.80;;;;;;5093517;28;20028;-15
2022/09/22 06:10:35;;;;;;;5.78;2.55;;;13.30;67.10;;;;;;5093182;28;20429;-14
2022/09/22 06:13:06;;;;;;;4.68;2.47;;;13.40;66.50;;;;;;5093196;28;20028;-16
2022/09/22 06:15:34;;;;;;;4.55;2.70;;;13.40;65.40;;;;;;5093231;28;20032;-15
2022/09/22 06:18:05;;;;;;;4.82;2.40;;;13.50;64.80;;;;;;5093433;28;20111;-16
2022/09/22 06:20:33;;;;;;;4.05;2.33;;;13.60;64.40;;;;;;5093123;28;20470;-15
2022/09/22 06:22:59;;;;;;;22.08;5.45;;;13.60;62.20;;;;;;5093244;28;20036;-15
2022/09/22 06:25:29;;;;;;;3.83;2.22;;;13.70;63.60;;;;;;5093229;28;20513;-15
2022/09/22 06:28:06;;;;;;;4.22;2.40;;;13.80;63.90;;;;;;5093282;28;20020;-14
2022/09/22 06:30:36;;;;;;;2.90;2.30;;;13.90;64.00;;;;;;5093069;28;20035;-16
2022/09/22 06:33:02;;;;;;;4.80;2.40;;;14.00;63.60;;;;;;5092789;28;20020;-17
2022/09/22 06:35:36;;;;;;;4.28;2.40;;;14.00;63.50;;;;;;5093346;28;20024;-17
2022/09/22 06:38:04;;;;;;;3.22;2.53;;;14.10;63.30;;;;;;5093446;28;20476;-17
2022/09/22 06:40:31;;;;;;;8.93;2.70;;;14.20;63.90;;;;;;5093212;28;20028;-15
2022/09/22 06:43:10;;;;;;;20.13;3.50;;;14.20;62.90;;;;;;5092688;28;20081;-17
2022/09/22 06:45:38;;;;;;;29.27;4.18;;;14.40;62.50;;;;;;5093211;28;20484;-17
2022/09/22 06:48:04;;;;;;;16.63;3.25;;;14.40;62.50;;;;;;5092702;28;20438;-17
2022/09/22 06:50:31;;;;;;;8.68;2.30;;;14.50;63.00;;;;;;5076198;28;20020;-15
2022/09/22 06:53:01;;;;;;;4.10;2.28;;;14.60;62.70;;;;;;5096620;28;20043;-15
2022/09/22 06:55:28;;;;;;;4.00;2.10;;;14.70;61.30;;;;;;5097340;28;20483;-15
2022/09/22 06:57:58;;;;;;;4.40;2.03;;;14.70;60.00;;;;;;5096998;28;20418;-14
2022/09/22 07:00:30;;;;;;;4.30;2.10;;;14.80;59.00;;;;;;5096899;28;20044;-16
2022/09/22 07:03:07;;;;;;;3.83;2.08;;;14.90;59.80;;;;;;5096398;28;20028;-14
2022/09/22 07:05:35;;;;;;;5.10;2.40;;;14.90;58.20;;;;;;5160766;22;20109;-15
2022/09/22 07:08:07;;;;;;;5.43;1.98;;;14.90;59.20;;;;;;5098969;28;20035;-16
2022/09/22 07:10:36;;;;;;;3.90;1.85;;;14.90;58.70;;;;;;5116885;28;20501;-16
2022/09/22 07:13:04;;;;;;;4.32;2.33;;;14.90;58.70;;;;;;5116869;28;20028;-17
2022/09/22 07:15:33;;;;;;;3.75;1.92;;;14.90;59.90;;;;;;5117013;28;20028;-17
2022/09/22 07:17:59;;;;;;;6.28;2.15;;;15.10;59.10;;;;;;5116991;28;20038;-16
2022/09/22 07:20:25;;;;;;;2.72;2.08;;;15.30;58.40;;;;;;5116706;28;20111;-16
2022/09/22 07:22:59;;;;;;;2.88;2.10;;;15.60;58.70;;;;;;5116340;28;20027;-16
2022/09/22 07:25:27;;;;;;;3.88;2.10;;;16.10;57.30;;;;;;5116826;28;20030;-17
2022/09/22 07:27:54;;;;;;;2.78;1.90;;;16.30;55.50;;;;;;5116802;28;20164;-16
2022/09/22 07:30:21;;;;;;;3.42;2.13;;;16.50;56.00;;;;;;5116459;28;20478;-15
2022/09/22 07:32:47;;;;;;;5.20;2.13;;;16.60;52.70;;;;;;5116125;28;20035;-15
2022/09/22 07:35:13;;;;;;;4.00;2.17;;;16.70;55.40;;;;;;5116235;28;20382;-15
2022/09/22 07:37:40;;;;;;;4.38;2.20;;;16.90;54.60;;;;;;5116670;28;20465;-15
2022/09/22 07:40:07;;;;;;;4.22;2.10;;;17.10;54.00;;;;;;5116249;28;20073;-18
2022/09/22 07:42:33;;;;;;;4.57;1.90;;;17.20;52.70;;;;;;5116311;28;20031;-15
2022/09/22 07:45:11;;;;;;;3.75;2.03;;;17.40;53.50;;;;;;5116223;28;20019;-16
2022/09/22 07:50:22;;;;;;;4.97;2.22;;;17.70;52.70;;;;;;5116328;28;20050;-16
2022/09/22 07:52:52;;;;;;;3.08;2.00;;;17.60;53.10;;;;;;5115790;28;20378;-16
2022/09/22 07:55:23;;;;;;;3.10;2.22;;;17.70;53.20;;;;;;5116043;28;20024;-17
2022/09/22 07:57:57;;;;;;;1.83;1.67;;;17.60;53.30;;;;;;5115997;28;20511;-15
2022/09/22 08:00:25;;;;;;;4.05;2.00;;;17.40;51.20;;;;;;5115602;28;20505;-17
2022/09/22 08:02:56;;;;;;;1.85;1.70;;;17.20;52.20;;;;;;5115429;28;20032;-16
2022/09/22 08:05:24;;;;;;;2.70;1.95;;;17.00;51.00;;;;;;5115410;28;20514;-16
2022/09/22 08:07:51;;;;;;;3.53;2.05;;;16.90;52.60;;;;;;5115937;28;20043;-16
2022/09/22 08:10:18;;;;;;;2.45;1.83;;;16.90;53.30;;;;;;5115717;28;20031;-17
2022/09/22 08:12:44;;;;;;;3.42;1.90;;;16.90;52.90;;;;;;5115715;28;20020;-16
2022/09/22 08:15:11;;;;;;;3.72;2.15;;;16.90;52.40;;;;;;5115674;28;20027;-16
2022/09/22 08:17:39;;;;;;;3.03;2.30;;;17.00;54.40;;;;;;5115807;28;20023;-16
2022/09/22 08:20:07;;;;;;;4.03;2.38;;;17.20;52.50;;;;;;5136074;22;20064;-17
2022/09/22 08:22:34;;;;;;;6.30;2.67;;;17.50;55.90;;;;;;5095140;28;20031;-16
2022/09/22 08:25:00;;;;;;;3.35;1.90;;;17.60;54.30;;;;;;5094785;28;20050;-18
2022/09/22 08:27:26;;;;;;;4.00;2.10;;;17.80;53.80;;;;;;5076817;28;20034;-16
2022/09/22 08:29:52;;;;;;;2.17;1.90;;;17.90;51.80;;;;;;5077647;28;20024;-18
2022/09/22 08:32:18;;;;;;;3.03;2.03;;;18.00;52.30;;;;;;5095199;28;20024;-17
2022/09/22 08:34:44;;;;;;;4.70;2.17;;;18.10;51.90;;;;;;5094724;28;20024;-16
2022/09/22 08:37:11;;;;;;;3.45;1.73;;;18.00;50.90;;;;;;5076448;28;20016;-15
2022/09/22 08:39:43;;;;;;;2.92;1.92;;;18.00;51.70;;;;;;5095031;28;20035;-15
2022/09/22 08:42:17;;;;;;;2.72;1.70;;;18.10;51.80;;;;;;5094712;28;20063;-15
2022/09/22 08:44:59;;;;;;;3.50;1.95;;;18.10;52.00;;;;;;5094667;28;20474;-16
2022/09/22 08:53:45;;;;;;;1.83;1.58;;;19.30;49.20;;;;;;5094834;28;20093;-16
2022/09/22 08:56:37;;;;;;;2.35;1.50;;;19.50;48.60;;;;;;5094804;28;20469;-16
2022/09/22 09:01:07;;;;;;;3.55;1.60;;;20.20;47.20;;;;;;5108866;27;20905;-12
2022/09/22 09:03:53;;;;;;;1.98;1.45;;;20.40;46.80;;;;;;5110996;28;20032;-14
2022/09/22 09:06:34;;;;;;;2.08;1.63;;;20.40;46.90;;;;;;5111362;28;20036;-14
2022/09/22 09:09:05;;;;;;;1.60;1.50;;;20.30;45.80;;;;;;5110735;28;20467;-13
2022/09/22 09:11:43;;;;;;;1.52;1.30;;;20.20;47.50;;;;;;5111739;28;20027;-13
2022/09/22 09:14:15;;;;;;;2.00;1.67;;;20.40;47.80;;;;;;5111149;28;20031;-13
2022/09/22 09:18:01;;;;;;;5.25;1.60;;;20.40;46.20;;;;;;5108594;27;20922;-12
2022/09/22 09:20:34;;;;;;;1.60;1.50;;;20.30;48.20;;;;;;5111045;28;20031;-13
2022/09/22 09:23:03;;;;;;;1.48;1.38;;;20.20;47.60;;;;;;5110825;28;20421;-12
2022/09/22 09:25:34;;;;;;;2.00;1.80;;;20.10;47.50;;;;;;5111495;28;20016;-12
2022/09/22 09:28:10;;;;;;;4.28;1.70;;;20.30;48.60;;;;;;5110904;28;20032;-12
2022/09/22 09:30:44;;;;;;;3.15;1.70;;;20.50;48.70;;;;;;5111093;28;20023;-12
2022/09/22 09:33:16;;;;;;;3.25;1.63;;;20.90;47.00;;;;;;5110432;28;20031;-12
2022/09/22 09:35:51;;;;;;;1.83;1.30;;;21.40;46.70;;;;;;5111203;28;20035;-12
2022/09/22 09:38:29;;;;;;;2.45;1.60;;;21.70;45.90;;;;;;5110745;28;20051;-11
2022/09/22 09:41:09;;;;;;;1.70;1.33;;;22.00;45.40;;;;;;5110550;28;20019;-12
2022/09/22 09:43:41;;;;;;;2.00;1.80;;;22.40;44.60;;;;;;5110659;28;20475;-14
2022/09/22 09:46:13;;;;;;;2.50;1.70;;;22.60;42.10;;;;;;5110859;28;20028;-13
2022/09/22 09:49:04;;;;;;;3.00;1.48;;;22.80;43.70;;;;;;5110531;28;20027;-13
2022/09/22 09:51:42;;;;;;;1.70;1.40;;;22.90;42.60;;;;;;5110676;28;20032;-12
2022/09/22 09:54:11;;;;;;;2.15;1.38;;;23.00;43.60;;;;;;5110724;28;20107;-12
2022/09/22 09:57:02;;;;;;;4.13;1.90;;;23.20;43.50;;;;;;5110564;28;20039;-12
2022/09/22 10:02:16;;;;;;;3.72;2.05;;;23.50;42.30;;;;;;5110709;28;20077;-13
2022/09/22 10:04:52;;;;;;;2.25;1.73;;;23.40;41.90;;;;;;5108842;28;20027;-13
2022/09/22 10:07:24;;;;;;;4.03;1.90;;;23.50;41.10;;;;;;5110493;28;20028;-13
2022/09/22 10:09:51;;;;;;;2.80;1.45;;;23.70;41.50;;;;;;5110179;28;20024;-14
2022/09/22 10:12:22;;;;;;;3.47;1.58;;;23.60;41.70;;;;;;5110160;28;20056;-13
2022/09/22 10:14:51;;;;;;;1.88;1.30;;;23.60;41.50;;;;;;5108703;28;20055;-13
2022/09/22 10:17:37;;;;;;;2.03;1.20;;;23.70;42.60;;;;;;5109716;28;20109;-13
2022/09/22 10:20:23;;;;;;;2.28;1.60;;;24.20;40.50;;;;;;5110161;28;20044;-13
2022/09/22 10:22:49;;;;;;;3.42;1.88;;;24.50;39.00;;;;;;5109939;28;20043;-14
2022/09/22 10:25:31;;;;;;;2.17;1.70;;;24.70;40.20;;;;;;5110101;28;20023;-11
2022/09/22 10:28:25;;;;;;;4.95;1.88;;;24.70;41.20;;;;;;5103290;28;20487;-12
2022/09/22 10:30:59;;;;;;;4.03;1.70;;;25.00;39.80;;;;;;5095546;28;20043;-13
2022/09/22 10:33:25;;;;;;;3.47;1.73;;;25.20;40.90;;;;;;5096636;28;20032;-12
2022/09/22 10:36:02;;;;;;;2.35;1.70;;;25.40;40.90;;;;;;5095033;28;20024;-12
2022/09/22 10:38:30;;;;;;;1.92;1.70;;;25.80;39.90;;;;;;5096377;28;20027;-11
2022/09/22 10:41:06;;;;;;;1.65;1.33;;;26.20;38.60;;;;;;5095638;28;20081;-12
2022/09/22 10:43:38;;;;;;;1.40;1.23;;;26.40;38.40;;;;;;5095921;28;20032;-11
2022/09/22 10:46:41;;;;;;;2.20;1.35;;;26.80;38.20;;;;;;5095777;28;20027;-13
2022/09/22 10:49:20;;;;;;;2.03;1.20;;;27.20;38.10;;;;;;5095691;28;20061;-13
2022/09/22 10:52:14;;;;;;;2.28;1.30;;;27.50;36.20;;;;;;5095733;28;20039;-13
2022/09/22 10:55:13;;;;;;;2.22;1.10;;;27.90;34.60;;;;;;5096060;28;20028;-13
2022/09/22 10:57:57;;;;;;;1.55;0.93;;;28.10;33.50;;;;;;5095524;28;20040;-12
2022/09/22 11:00:26;;;;;;;1.27;0.98;;;28.30;32.30;;;;;;5095926;28;20092;-13
2022/09/22 11:03:13;;;;;;;1.00;0.90;;;28.50;31.90;;;;;;5095644;28;20032;-12
2022/09/22 11:14:30;;;;;;;1.25;1.15;;;28.10;34.20;;;;;;5095516;28;20123;-12
2022/09/22 11:17:33;;;;;;;1.98;1.50;;;28.10;34.30;;;;;;5094868;28;20060;-13
2022/09/22 11:20:26;;;;;;;4.13;1.85;;;28.50;33.10;;;;;;5095424;28;20072;-13
2022/09/22 11:23:00;;;;;;;2.20;1.80;;;28.90;33.20;;;;;;5094852;28;20546;-12
2022/09/22 11:25:35;;;;;;;1.90;1.50;;;29.10;33.40;;;;;;5095134;28;20111;-13
2022/09/22 11:28:16;;;;;;;2.65;1.50;;;29.40;33.80;;;;;;5095375;28;20077;-13
2022/09/22 11:30:49;;;;;;;1.73;1.45;;;29.90;32.00;;;;;;5095249;28;20016;-12
2022/09/22 11:33:15;;;;;;;3.15;1.63;;;29.80;32.20;;;;;;5095475;28;20021;-13
2022/09/22 11:36:40;;;;;;;1.88;1.27;;;30.00;31.80;;;;;;5094987;28;20032;-12
2022/09/22 11:39:47;;;;;;;2.90;1.70;;;30.30;31.80;;;;;;5034769;28;20040;-13
2022/09/22 11:42:24;;;;;;;3.10;1.77;;;30.80;31.30;;;;;;5095101;28;20020;-12
2022/09/22 11:45:12;;;;;;;1.20;1.15;;;31.10;29.40;;;;;;5094906;28;20023;-12
2022/09/22 11:47:53;;;;;;;1.30;1.20;;;31.20;29.60;;;;;;5094944;28;20024;-13
2022/09/22 11:50:30;;;;;;;1.60;1.35;;;31.20;30.00;;;;;;5095133;28;20049;-12
2022/09/22 11:53:15;;;;;;;3.30;1.20;;;31.50;29.60;;;;;;5094425;28;20035;-12
2022/09/22 11:56:03;;;;;;;2.00;1.33;;;31.70;29.50;;;;;;5095103;28;20012;-12
2022/09/22 11:58:32;;;;;;;2.17;1.42;;;32.00;29.40;;;;;;5094779;28;20061;-13
2022/09/22 12:01:09;;;;;;;3.35;1.60;;;32.20;29.40;;;;;;5094244;28;20020;-13
2022/09/22 12:03:40;;;;;;;4.25;1.58;;;32.40;28.80;;;;;;5094267;28;20532;-13
2022/09/22 12:06:13;;;;;;;3.08;1.35;;;32.30;28.90;;;;;;5094751;28;20032;-13
2022/09/22 12:08:52;;;;;;;1.42;1.20;;;32.40;28.80;;;;;;5095081;28;20028;-13
2022/09/22 12:11:19;;;;;;;1.60;1.13;;;32.50;28.70;;;;;;5094137;28;20028;-13
2022/09/22 12:13:49;;;;;;;1.52;1.25;;;32.50;28.20;;;;;;5094459;28;20028;-13
2022/09/22 12:16:30;;;;;;;1.50;1.40;;;32.60;28.50;;;;;;5093837;28;20552;-13
2022/09/22 12:19:18;;;;;;;2.28;1.25;;;32.80;28.10;;;;;;5093822;28;20077;-13
2022/09/22 12:21:59;;;;;;;1.52;1.00;;;32.90;28.90;;;;;;5092833;28;20024;-12
2022/09/22 12:24:25;;;;;;;1.30;1.00;;;33.20;28.10;;;;;;5094258;28;20036;-13
2022/09/22 12:26:52;;;;;;;1.08;1.00;;;33.20;27.90;;;;;;5093808;28;20012;-13
2022/09/22 12:29:28;;;;;;;3.63;1.48;;;33.10;27.30;;;;;;5093905;28;20036;-13
2022/09/22 12:31:57;;;;;;;1.77;1.13;;;32.90;27.80;;;;;;5094007;28;20024;-14
2022/09/22 12:34:42;;;;;;;1.63;1.10;;;32.80;28.20;;;;;;5093710;28;20035;-12
2022/09/22 12:37:12;;;;;;;1.58;1.17;;;32.80;27.90;;;;;;5093542;28;20042;-13
2022/09/22 12:39:47;;;;;;;1.48;1.00;;;32.40;28.80;;;;;;5093748;28;20066;-13
2022/09/22 12:42:27;;;;;;;0.95;0.90;;;31.90;28.30;;;;;;5093640;28;20517;-12
2022/09/22 12:45:01;;;;;;;1.70;1.20;;;31.20;29.50;;;;;;5093571;28;20096;-13
2022/09/22 12:47:35;;;;;;;1.27;1.17;;;30.40;30.40;;;;;;5093607;28;20035;-13
2022/09/22 12:50:24;;;;;;;1.95;1.10;;;29.80;31.00;;;;;;5093813;28;20043;-13
2022/09/22 12:52:50;;;;;;;2.28;1.08;;;29.20;32.00;;;;;;5093175;28;20024;-14
2022/09/22 12:55:29;;;;;;;2.75;1.08;;;28.30;33.30;;;;;;5093454;28;20039;-12
2022/09/22 12:57:57;;;;;;;6.20;1.50;;;27.80;33.70;;;;;;5093630;28;20127;-13
2022/09/22 13:00:42;;;;;;;1.20;0.90;;;27.20;35.20;;;;;;5093752;28;20024;-13
2022/09/22 13:03:26;;;;;;;1.25;1.13;;;26.70;36.10;;;;;;5093457;28;20028;-12
2022/09/22 13:05:56;;;;;;;2.20;1.20;;;26.50;35.90;;;;;;5093539;28;20039;-13
2022/09/22 13:08:35;;;;;;;1.20;1.10;;;26.40;35.30;;;;;;5093316;28;20020;-13
2022/09/22 13:11:05;;;;;;;3.13;1.70;;;26.30;35.60;;;;;;5093426;28;20094;-12
2022/09/22 13:13:30;;;;;;;1.98;1.40;;;26.20;35.70;;;;;;5093172;28;20043;-12
2022/09/22 13:16:23;;;;;;;2.58;1.10;;;26.20;35.70;;;;;;5093441;28;20056;-12
2022/09/22 13:18:50;;;;;;;2.10;1.30;;;26.40;35.30;;;;;;5092719;28;20035;-12
2022/09/22 13:21:18;;;;;;;2.67;1.40;;;26.90;34.70;;;;;;5093406;28;20540;-13
2022/09/22 13:23:49;;;;;;;1.75;1.20;;;27.20;34.00;;;;;;5093448;28;20035;-13
2022/09/22 13:26:21;;;;;;;1.48;0.95;;;27.50;33.90;;;;;;5093189;28;20043;-13
2022/09/22 13:29:18;;;;;;;2.00;1.02;;;28.20;33.20;;;;;;5093053;28;20550;-12
2022/09/22 13:31:49;;;;;;;3.80;1.30;;;29.00;31.70;;;;;;5087432;28;20038;-13
2022/09/22 13:34:20;;;;;;;1.00;1.00;;;29.80;30.70;;;;;;5092927;28;20028;-13
2022/09/22 13:36:46;;;;;;;2.50;1.10;;;30.00;30.30;;;;;;5093316;28;20028;-14
2022/09/22 13:39:16;;;;;;;3.50;1.08;;;30.30;29.70;;;;;;5092971;28;20036;-13